East Irvington, New York
Current Conditions -  °F | °C
As of 5:56 PM on Wednesday 22 Oct 2014 (Local Time) from KHPN Reporting Station
Moderate Rain Moderate Rain  
Wind Chill: 51°   Ceiling: 1400
Heat Index: 51°   Visibility: 2.5mi
Dew Point: 48°   Wind: 18mph
Humidity: 89%   Direction: 350°N
Pressure: 29.81"   Gusts: 29mph
Location:  41.0402°N, 73.8532°W
Report Text: KHPN 222156Z 35016G25KT 2 1/2SM RA BR BKN014 OVC019 11/09 A2981 RMK AO2 PK WND 36026/2104 SLP095 P0004 T01060089
Loading
Personal Weather Stations






























Interactive Weather Map
Tropical Storm Tracking
New forecast layout! Learn more

10-Day Weather Forecast

Advertisements
Track Severe Weather on mobile